createdAt,value
2022-08-17T00:00:42.580Z,20.70
2022-08-17T00:04:39.489Z,20.90
2022-08-17T00:08:44.624Z,21.10
2022-08-17T00:12:46.772Z,21.20
2022-08-17T00:16:57.225Z,21.20
2022-08-17T00:21:00.656Z,21.10
2022-08-17T00:25:05.253Z,21.20
2022-08-17T00:29:07.747Z,21.20
2022-08-17T00:33:16.591Z,21.10
2022-08-17T00:37:18.737Z,21.00
2022-08-17T00:41:24.468Z,20.90
2022-08-17T00:45:26.911Z,20.90
2022-08-17T00:49:29.538Z,21.00
2022-08-17T00:53:33.629Z,20.90
2022-08-17T00:57:40.044Z,20.80
2022-08-17T01:01:42.444Z,20.70
2022-08-17T01:05:44.272Z,20.50
2022-08-17T01:09:48.461Z,20.10
2022-08-17T01:13:50.332Z,19.90
2022-08-17T01:17:52.137Z,19.70
2022-08-17T01:22:05.833Z,19.60
2022-08-17T01:26:08.559Z,19.40
2022-08-17T01:30:59.004Z,19.40
2022-08-17T01:34:42.452Z,19.20
2022-08-17T01:38:45.234Z,19.10
2022-08-17T01:42:57.160Z,18.90
2022-08-17T01:46:58.864Z,18.80
2022-08-17T01:51:03.197Z,18.70
2022-08-17T01:55:07.215Z,18.60
2022-08-17T01:59:09.324Z,18.50
2022-08-17T02:03:11.908Z,18.40
2022-08-17T02:07:13.667Z,18.30
2022-08-17T02:11:21.206Z,18.10
2022-08-17T02:15:23.469Z,18.10
2022-08-17T02:19:25.278Z,18.00
2022-08-17T02:23:29.280Z,17.90
2022-08-17T02:27:31.339Z,17.80
2022-08-17T02:31:33.226Z,17.70
2022-08-17T02:35:37.095Z,17.70
2022-08-17T02:39:38.883Z,17.60
2022-08-17T02:43:40.756Z,17.50
2022-08-17T02:47:43.931Z,17.50
2022-08-17T02:51:45.619Z,17.50
2022-08-17T02:55:47.436Z,17.30
2022-08-17T02:59:49.272Z,17.30
2022-08-17T03:03:51.337Z,17.30
2022-08-17T03:07:53.257Z,17.30
2022-08-17T03:11:55.923Z,17.20
2022-08-17T03:15:57.862Z,17.30
2022-08-17T03:19:59.793Z,17.30
2022-08-17T03:24:01.641Z,17.30
2022-08-17T03:28:12.153Z,17.30
2022-08-17T03:32:15.885Z,17.30
2022-08-17T03:36:17.568Z,17.30
2022-08-17T03:40:55.183Z,17.30
2022-08-17T03:44:42.045Z,17.30
2022-08-17T03:49:02.256Z,17.30
2022-08-17T03:53:28.449Z,17.20
2022-08-17T03:57:31.393Z,17.20
2022-08-17T04:01:33.191Z,17.10
2022-08-17T04:05:34.924Z,17.10
2022-08-17T04:09:37.007Z,17.10
2022-08-17T04:13:38.775Z,17.10
2022-08-17T04:17:41.030Z,17.00
2022-08-17T04:21:42.759Z,17.00
2022-08-17T04:25:48.315Z,17.00
2022-08-17T04:29:55.602Z,17.00
2022-08-17T04:33:57.748Z,17.00
2022-08-17T04:37:59.869Z,17.00
2022-08-17T04:42:09.140Z,17.00
2022-08-17T04:46:14.575Z,17.10
2022-08-17T04:50:16.440Z,17.20
2022-08-17T04:54:20.727Z,17.20
2022-08-17T04:58:22.445Z,17.30
2022-08-17T05:02:24.241Z,17.40
2022-08-17T05:06:27.408Z,17.50
2022-08-17T05:10:31.947Z,17.60
2022-08-17T05:14:34.024Z,17.70
2022-08-17T05:18:37.179Z,17.80
2022-08-17T05:22:51.808Z,17.90
2022-08-17T05:26:53.710Z,18.00
2022-08-17T05:30:59.732Z,18.10
2022-08-17T05:35:01.574Z,18.20
2022-08-17T05:39:03.564Z,18.40
2022-08-17T05:43:33.336Z,18.50
2022-08-17T05:47:36.394Z,18.70
2022-08-17T05:52:00.727Z,18.90
2022-08-17T05:56:29.958Z,19.30
2022-08-17T06:00:46.961Z,19.60
2022-08-17T06:04:48.708Z,19.80
2022-08-17T06:09:07.029Z,20.10
2022-08-17T06:13:59.621Z,20.40
2022-08-17T06:18:07.668Z,20.60
2022-08-17T06:22:13.398Z,21.40
2022-08-17T06:26:20.825Z,21.60
2022-08-17T06:30:58.676Z,21.60
2022-08-17T06:34:53.484Z,21.80
2022-08-17T06:39:13.290Z,21.70
2022-08-17T06:43:48.006Z,21.70
2022-08-17T06:47:59.565Z,21.90
2022-08-17T06:52:42.188Z,22.00
2022-08-17T06:56:53.248Z,22.10
2022-08-17T07:01:02.033Z,22.20
2022-08-17T07:05:04.161Z,22.30
2022-08-17T07:09:23.487Z,22.40
2022-08-17T07:13:51.514Z,22.50
2022-08-17T07:17:53.550Z,22.60
2022-08-17T07:22:07.709Z,22.70
2022-08-17T07:26:10.120Z,22.80
2022-08-17T07:30:17.173Z,22.80
2022-08-17T07:34:18.848Z,22.90
2022-08-17T07:38:25.310Z,22.90
2022-08-17T07:42:28.508Z,23.00
2022-08-17T07:46:53.104Z,23.10
2022-08-17T07:50:55.508Z,23.30
2022-08-17T07:54:57.923Z,23.40
2022-08-17T07:59:23.356Z,23.40
2022-08-17T08:03:31.832Z,23.50
2022-08-17T08:07:38.188Z,23.50
2022-08-17T08:11:44.337Z,23.50
2022-08-17T08:16:16.571Z,23.30
2022-08-17T08:20:52.288Z,23.40
2022-08-17T08:24:42.984Z,23.40
2022-08-17T08:28:55.470Z,23.40
2022-08-17T08:33:06.820Z,23.60
2022-08-17T08:37:35.751Z,23.80
2022-08-17T08:41:58.791Z,23.90
2022-08-17T08:46:41.667Z,24.00
2022-08-17T08:51:05.159Z,24.00
2022-08-17T08:55:24.812Z,23.90
2022-08-17T08:59:29.304Z,23.80
2022-08-17T09:03:53.555Z,23.70
2022-08-17T09:08:04.704Z,23.60
2022-08-17T09:12:16.715Z,23.40
2022-08-17T09:16:40.374Z,23.40
2022-08-17T09:20:58.712Z,23.40
2022-08-17T09:25:21.655Z,23.40
2022-08-17T09:29:26.941Z,23.30
2022-08-17T09:33:31.640Z,23.40
2022-08-17T09:38:01.728Z,23.30
2022-08-17T09:42:24.814Z,23.30
2022-08-17T09:46:36.260Z,23.30
2022-08-17T09:51:12.219Z,23.20
2022-08-17T09:55:14.137Z,23.20
2022-08-17T09:59:38.258Z,23.10
2022-08-17T10:04:06.052Z,23.10
2022-08-17T10:08:32.032Z,23.10
2022-08-17T10:12:47.113Z,23.10
2022-08-17T10:16:56.160Z,23.10
2022-08-17T10:21:22.725Z,23.10
2022-08-17T10:25:54.638Z,23.00
2022-08-17T10:30:04.093Z,23.00
2022-08-17T10:34:27.764Z,23.00
2022-08-17T10:38:37.119Z,22.90
2022-08-17T10:42:54.908Z,22.80
2022-08-17T10:46:56.604Z,22.80
2022-08-17T10:51:09.382Z,22.70
2022-08-17T10:55:18.116Z,22.60
2022-08-17T10:59:35.104Z,22.60
2022-08-17T11:03:36.911Z,22.40
2022-08-17T11:07:58.691Z,22.50
2022-08-17T11:12:19.598Z,22.50
2022-08-17T11:16:47.845Z,22.40
2022-08-17T11:21:09.758Z,22.40
2022-08-17T11:25:20.848Z,22.40
2022-08-17T11:29:33.670Z,22.40
2022-08-17T11:33:44.821Z,22.50
2022-08-17T11:38:15.995Z,22.80
2022-08-17T11:42:18.158Z,23.20
2022-08-17T11:47:08.754Z,23.80
2022-08-17T11:51:34.934Z,24.20
2022-08-17T11:55:44.721Z,24.60
2022-08-17T11:59:46.745Z,24.90
2022-08-17T12:03:55.600Z,25.10
2022-08-17T12:08:19.626Z,25.30
2022-08-17T12:12:32.860Z,25.30
2022-08-17T12:16:34.763Z,25.20
2022-08-17T12:20:46.538Z,25.40
2022-08-17T12:25:00.053Z,25.30
2022-08-17T12:29:18.339Z,25.10
2022-08-17T12:33:49.880Z,25.00
2022-08-17T12:37:51.916Z,25.00
2022-08-17T12:42:02.102Z,24.90
2022-08-17T12:46:19.280Z,25.10
2022-08-17T12:50:28.533Z,25.00
2022-08-17T12:54:53.442Z,25.00
2022-08-17T12:58:56.637Z,24.80
2022-08-17T13:03:15.567Z,24.80
2022-08-17T13:07:34.050Z,24.80
2022-08-17T13:11:35.788Z,24.70
2022-08-17T13:15:43.247Z,24.50
2022-08-17T13:19:49.957Z,24.70
2022-08-17T13:24:17.165Z,24.60
2022-08-17T13:28:30.659Z,24.40
2022-08-17T13:32:48.275Z,24.90
2022-08-17T13:36:52.457Z,25.40
2022-08-17T13:40:54.331Z,25.70
2022-08-17T13:44:56.207Z,25.80
2022-08-17T13:49:04.342Z,25.60
2022-08-17T13:53:37.787Z,25.20
2022-08-17T13:57:46.566Z,24.90
2022-08-17T14:01:53.386Z,24.70
2022-08-17T14:05:55.935Z,24.40
2022-08-17T14:10:01.502Z,24.30
2022-08-17T14:14:04.150Z,24.40
2022-08-17T14:18:05.944Z,24.60
2022-08-17T14:22:14.565Z,24.70
2022-08-17T14:26:16.371Z,24.70
2022-08-17T14:30:20.087Z,25.00
2022-08-17T14:34:29.279Z,25.00
2022-08-17T14:38:31.050Z,24.80
2022-08-17T14:42:34.820Z,24.60
2022-08-17T14:46:36.565Z,24.40
2022-08-17T14:50:42.935Z,24.50
2022-08-17T14:54:45.957Z,24.80
2022-08-17T14:58:47.837Z,25.10
2022-08-17T15:02:59.937Z,25.20
2022-08-17T15:07:01.673Z,25.20
2022-08-17T15:11:04.509Z,25.00
2022-08-17T15:15:07.534Z,25.10
2022-08-17T15:19:09.298Z,25.20
2022-08-17T15:23:15.645Z,25.10
2022-08-17T15:27:17.367Z,24.90
2022-08-17T15:31:33.833Z,24.80
2022-08-17T15:35:35.960Z,25.00
2022-08-17T15:39:37.728Z,25.00
2022-08-17T15:43:39.524Z,25.00
2022-08-17T15:47:42.480Z,25.00
2022-08-17T15:51:44.230Z,24.70
2022-08-17T15:55:46.020Z,24.60
2022-08-17T15:59:50.782Z,24.60
2022-08-17T16:04:06.563Z,24.70
2022-08-17T16:08:10.822Z,24.80
2022-08-17T16:12:18.451Z,24.70
2022-08-17T16:16:20.194Z,24.50
2022-08-17T16:20:22.153Z,24.50
2022-08-17T16:24:23.933Z,24.50
2022-08-17T16:28:35.891Z,24.40
2022-08-17T16:32:38.709Z,24.30
2022-08-17T16:36:41.519Z,24.30
2022-08-17T16:40:56.258Z,24.30
2022-08-17T16:45:04.172Z,24.20
2022-08-17T16:49:07.291Z,24.10
2022-08-17T16:53:19.000Z,24.10
2022-08-17T16:57:21.880Z,23.90
2022-08-17T17:01:25.449Z,23.90
2022-08-17T17:05:45.399Z,23.80
2022-08-17T17:09:55.403Z,23.60
2022-08-17T17:14:02.062Z,23.30
2022-08-17T17:18:07.108Z,23.10
2022-08-17T17:22:30.025Z,23.10
2022-08-17T17:26:48.273Z,23.10
2022-08-17T17:31:02.042Z,23.00
2022-08-17T17:35:09.949Z,23.00
2022-08-17T17:39:43.809Z,22.90
2022-08-17T17:43:49.149Z,23.00
2022-08-17T17:47:53.245Z,22.80
2022-08-17T17:52:26.083Z,22.60
2022-08-17T17:56:44.602Z,22.50
2022-08-17T18:00:59.521Z,22.50
2022-08-17T18:05:12.213Z,22.50
2022-08-17T18:09:17.963Z,22.40
2022-08-17T18:13:31.175Z,22.20
2022-08-17T18:17:35.919Z,22.20
2022-08-17T18:21:44.374Z,22.00
2022-08-17T18:25:49.217Z,22.00
2022-08-17T18:29:55.520Z,21.90
2022-08-17T18:34:46.054Z,21.80
2022-08-17T18:38:46.721Z,21.60
2022-08-17T18:43:00.419Z,21.50
2022-08-17T18:47:13.836Z,21.20
2022-08-17T18:51:39.754Z,21.00
2022-08-17T18:55:43.321Z,20.90
2022-08-17T18:59:48.167Z,20.70
2022-08-17T19:03:50.180Z,20.60
2022-08-17T19:07:52.151Z,20.40
2022-08-17T19:11:54.061Z,20.40
2022-08-17T19:16:17.546Z,20.20
2022-08-17T19:20:26.830Z,20.10
2022-08-17T19:24:34.454Z,20.00
2022-08-17T19:28:48.603Z,19.90
2022-08-17T19:32:52.958Z,19.80
2022-08-17T19:37:04.551Z,19.70
2022-08-17T19:41:29.858Z,19.70
2022-08-17T19:46:06.069Z,19.70
2022-08-17T19:50:18.894Z,19.60
2022-08-17T19:55:00.509Z,19.50
2022-08-17T19:59:14.237Z,19.40
2022-08-17T20:04:03.208Z,19.30
2022-08-17T20:08:07.525Z,19.20
2022-08-17T20:12:13.743Z,19.10
2022-08-17T20:16:17.408Z,19.10
2022-08-17T20:21:03.355Z,19.00
2022-08-17T20:25:12.476Z,18.90
2022-08-17T20:29:14.396Z,18.70
2022-08-17T20:33:36.955Z,18.60
2022-08-17T20:37:44.304Z,18.50
2022-08-17T20:42:06.388Z,18.40
2022-08-17T20:46:11.196Z,18.30
2022-08-17T20:50:26.656Z,18.30
2022-08-17T20:54:47.041Z,18.20
2022-08-17T20:58:48.897Z,18.10
2022-08-17T21:03:12.043Z,18.00
2022-08-17T21:07:43.526Z,17.90
2022-08-17T21:12:02.922Z,17.80
2022-08-17T21:16:30.869Z,17.80
2022-08-17T21:20:58.233Z,17.70
2022-08-17T21:25:32.439Z,17.70
2022-08-17T21:29:40.250Z,17.60
2022-08-17T21:34:20.718Z,17.60
2022-08-17T21:38:33.171Z,17.40
2022-08-17T21:42:38.264Z,17.40
2022-08-17T21:46:46.494Z,17.20
2022-08-17T21:51:03.719Z,17.20
2022-08-17T21:55:06.123Z,17.10
2022-08-17T21:59:24.396Z,17.10
2022-08-17T22:03:31.084Z,17.00
2022-08-17T22:07:42.051Z,17.00
2022-08-17T22:11:52.486Z,17.00
2022-08-17T22:16:29.250Z,16.90
2022-08-17T22:20:31.680Z,16.80
2022-08-17T22:24:33.916Z,16.80
2022-08-17T22:28:52.251Z,16.70
2022-08-17T22:32:55.318Z,16.70
2022-08-17T22:37:32.393Z,16.70
2022-08-17T22:41:42.649Z,16.60
2022-08-17T22:46:09.341Z,16.50
2022-08-17T22:50:23.245Z,16.50
2022-08-17T22:54:47.038Z,16.40
2022-08-17T22:59:15.766Z,16.40
2022-08-17T23:03:20.457Z,16.40
2022-08-17T23:07:22.329Z,16.30
2022-08-17T23:11:36.545Z,16.30
2022-08-17T23:15:50.970Z,16.20
2022-08-17T23:19:53.060Z,16.20
2022-08-17T23:23:55.081Z,16.20
2022-08-17T23:27:58.941Z,16.20
2022-08-17T23:32:01.614Z,16.20
2022-08-17T23:36:03.448Z,16.10
2022-08-17T23:40:05.989Z,16.00
2022-08-17T23:44:08.108Z,16.00
2022-08-17T23:48:09.801Z,15.90
2022-08-17T23:52:15.180Z,15.90
2022-08-17T23:56:24.569Z,15.90
